createdAt,value
2022-08-01T00:02:23.581Z,49.97
2022-08-01T00:07:26.077Z,50.18
2022-08-01T00:12:28.535Z,53.66
2022-08-01T00:17:30.919Z,55.06
2022-08-01T00:22:34.388Z,51.13
2022-08-01T00:27:37.606Z,51.08
2022-08-01T00:32:40.429Z,51.90
2022-08-01T00:37:42.815Z,52.48
2022-08-01T00:42:45.321Z,52.96
2022-08-01T00:47:48.004Z,53.24
2022-08-01T00:53:00.016Z,53.90
2022-08-01T00:58:05.664Z,54.23
2022-08-01T01:03:08.971Z,54.83
2022-08-01T01:08:23.395Z,55.18
2022-08-01T01:13:31.634Z,55.48
2022-08-01T01:18:36.805Z,56.24
2022-08-01T01:23:57.581Z,56.71
2022-08-01T01:29:05.712Z,56.49
2022-08-01T01:34:10.410Z,57.34
2022-08-01T01:39:15.257Z,57.61
2022-08-01T01:44:18.216Z,57.81
2022-08-01T01:49:24.980Z,57.93
2022-08-01T01:54:38.957Z,59.16
2022-08-01T01:59:42.175Z,58.84
2022-08-01T02:04:47.712Z,59.56
2022-08-01T02:09:52.299Z,59.69
2022-08-01T02:14:57.063Z,60.27
2022-08-01T02:19:59.841Z,60.35
2022-08-01T02:25:18.748Z,60.98
2022-08-01T02:30:22.421Z,62.21
2022-08-01T02:35:28.616Z,61.17
2022-08-01T02:40:34.821Z,63.19
2022-08-01T02:45:42.159Z,63.48
2022-08-01T02:50:48.227Z,62.79
2022-08-01T02:55:53.664Z,63.45
2022-08-01T03:00:56.748Z,63.75
2022-08-01T03:06:00.566Z,61.74
2022-08-01T03:11:04.537Z,62.87
2022-08-01T03:16:08.603Z,64.82
2022-08-01T03:21:13.039Z,65.90
2022-08-01T03:26:16.078Z,67.38
2022-08-01T03:31:19.466Z,65.55
2022-08-01T03:36:27.729Z,66.04
2022-08-01T03:41:35.043Z,67.76
2022-08-01T03:46:51.023Z,65.87
2022-08-01T03:51:55.668Z,61.67
2022-08-01T03:56:59.487Z,65.46
2022-08-01T04:02:02.877Z,64.47
2022-08-01T04:07:07.729Z,63.38
2022-08-01T04:12:10.222Z,63.71
2022-08-01T04:17:15.947Z,60.71
2022-08-01T04:22:18.986Z,60.59
2022-08-01T04:27:48.547Z,62.95
2022-08-01T04:32:55.585Z,62.95
2022-08-01T04:37:59.396Z,60.06
2022-08-01T04:43:02.168Z,64.46
2022-08-01T04:48:07.889Z,62.88
2022-08-01T04:53:18.673Z,65.76
2022-08-01T04:58:21.212Z,67.27
2022-08-01T05:03:23.910Z,68.16
2022-08-01T05:08:26.579Z,69.87
2022-08-01T05:13:29.002Z,70.92
2022-08-01T05:18:31.501Z,69.37
2022-08-01T05:23:43.276Z,69.56
2022-08-01T05:28:45.914Z,67.77
2022-08-01T05:33:48.336Z,68.37
2022-08-01T05:38:50.843Z,68.94
2022-08-01T05:43:53.345Z,68.25
2022-08-01T05:48:55.905Z,68.17
2022-08-01T05:53:58.585Z,67.61
2022-08-01T05:59:01.052Z,66.98
2022-08-01T06:04:03.569Z,69.11
2022-08-01T06:09:05.999Z,68.58
2022-08-01T06:14:08.453Z,66.80
2022-08-01T06:19:10.899Z,66.60
2022-08-01T06:24:13.406Z,67.18
2022-08-01T06:29:15.815Z,67.94
2022-08-01T06:34:18.252Z,68.43
2022-08-01T06:39:20.777Z,65.61
2022-08-01T06:44:23.964Z,64.32
2022-08-01T06:49:26.957Z,64.25
2022-08-01T06:54:29.404Z,66.37
2022-08-01T06:59:31.861Z,64.67
2022-08-01T07:04:34.390Z,62.46
2022-08-01T07:09:37.834Z,60.60
2022-08-01T07:14:40.282Z,60.59
2022-08-01T07:19:42.928Z,58.83
2022-08-01T07:24:49.522Z,59.11
2022-08-01T07:29:57.552Z,59.09
2022-08-01T07:35:00.410Z,59.41
2022-08-01T07:40:05.439Z,57.18
2022-08-01T07:45:08.437Z,55.92
2022-08-01T07:50:11.170Z,56.57
2022-08-01T07:55:16.494Z,56.28
2022-08-01T08:00:19.580Z,56.28
2022-08-01T08:05:57.794Z,54.90
2022-08-01T08:10:44.853Z,56.09
2022-08-01T08:15:48.502Z,54.94
2022-08-01T08:20:51.368Z,55.34
2022-08-01T08:25:54.146Z,54.57
2022-08-01T08:30:56.585Z,53.63
2022-08-01T08:36:01.335Z,50.89
2022-08-01T08:41:05.618Z,52.50
2022-08-01T08:46:10.203Z,52.11
2022-08-01T08:51:13.025Z,51.41
2022-08-01T08:56:16.343Z,53.63
2022-08-01T09:01:19.177Z,54.73
2022-08-01T09:06:26.051Z,51.22
2022-08-01T09:11:30.296Z,52.84
2022-08-01T09:16:34.209Z,53.10
2022-08-01T09:21:36.644Z,54.27
2022-08-01T09:26:42.776Z,52.59
2022-08-01T09:31:48.010Z,54.01
2022-08-01T09:36:56.772Z,52.35
2022-08-01T09:42:02.114Z,49.33
2022-08-01T09:47:07.738Z,49.63
2022-08-01T09:52:16.405Z,49.87
2022-08-01T09:57:20.823Z,51.42
2022-08-01T10:02:36.497Z,53.84
2022-08-01T10:08:01.434Z,52.89
2022-08-01T10:13:04.994Z,51.11
2022-08-01T10:18:16.726Z,46.61
2022-08-01T10:23:40.690Z,45.51
2022-08-01T10:28:45.953Z,46.80
2022-08-01T10:33:50.794Z,45.59
2022-08-01T10:38:56.671Z,42.52
2022-08-01T10:43:59.931Z,44.65
2022-08-01T10:49:12.270Z,50.19
2022-08-01T10:54:15.519Z,52.10
2022-08-01T10:59:49.225Z,52.65
2022-08-01T11:04:56.688Z,45.27
2022-08-01T11:10:16.819Z,42.80
2022-08-01T11:15:31.263Z,42.45
2022-08-01T11:20:41.925Z,48.84
2022-08-01T11:26:04.694Z,46.13
2022-08-01T11:31:10.912Z,40.09
2022-08-01T11:36:15.501Z,39.06
2022-08-01T11:41:37.398Z,35.50
2022-08-01T11:47:10.048Z,41.51
2022-08-01T11:52:19.030Z,44.87
2022-08-01T11:57:34.622Z,40.59
2022-08-01T12:02:38.545Z,45.85
2022-08-01T12:07:43.228Z,48.10
2022-08-01T12:12:57.320Z,41.93
2022-08-01T12:18:02.620Z,44.68
2022-08-01T12:23:10.227Z,48.12
2022-08-01T12:28:16.282Z,49.31
2022-08-01T12:33:21.390Z,50.03
2022-08-01T12:38:25.993Z,43.99
2022-08-01T12:43:32.338Z,40.98
2022-08-01T12:48:34.860Z,47.60
2022-08-01T12:53:40.491Z,50.11
2022-08-01T12:58:43.811Z,49.83
2022-08-01T13:04:05.228Z,46.35
2022-08-01T13:09:10.081Z,43.85
2022-08-01T13:14:28.052Z,48.31
2022-08-01T13:19:48.163Z,46.76
2022-08-01T13:24:50.687Z,48.97
2022-08-01T13:29:56.658Z,42.87
2022-08-01T13:35:13.464Z,45.32
2022-08-01T13:40:26.314Z,47.41
2022-08-01T13:45:28.909Z,41.97
2022-08-01T13:50:32.848Z,43.92
2022-08-01T13:55:35.740Z,46.69
2022-08-01T14:00:38.273Z,47.43
2022-08-01T14:05:40.912Z,43.94
2022-08-01T14:10:43.332Z,47.04
2022-08-01T14:15:46.298Z,45.72
2022-08-01T14:20:48.918Z,45.34
2022-08-01T14:26:02.624Z,47.20
2022-08-01T14:31:09.030Z,49.02
2022-08-01T14:36:29.969Z,45.80
2022-08-01T14:41:33.452Z,46.00
2022-08-01T14:46:36.023Z,48.57
2022-08-01T14:51:39.275Z,50.43
2022-08-01T14:56:41.735Z,46.49
2022-08-01T15:01:44.144Z,46.62
2022-08-01T15:06:46.632Z,48.34
2022-08-01T15:11:49.046Z,47.88
2022-08-01T15:16:51.633Z,48.38
2022-08-01T15:21:54.193Z,47.92
2022-08-01T15:26:56.688Z,48.18
2022-08-01T15:31:59.547Z,47.71
2022-08-01T15:37:02.746Z,46.57
2022-08-01T15:42:19.288Z,47.96
2022-08-01T15:47:27.615Z,49.91
2022-08-01T15:52:30.942Z,50.70
2022-08-01T15:57:34.496Z,51.50
2022-08-01T16:02:36.959Z,51.47
2022-08-01T16:07:59.296Z,51.72
2022-08-01T16:13:06.790Z,51.26
2022-08-01T16:18:16.015Z,51.54
2022-08-01T16:23:18.496Z,52.49
2022-08-01T16:28:21.912Z,52.36
2022-08-01T16:33:45.653Z,53.30
2022-08-01T16:38:47.034Z,53.51
2022-08-01T16:43:54.220Z,52.98
2022-08-01T16:49:06.731Z,54.21
2022-08-01T16:54:25.625Z,52.22
2022-08-01T16:59:28.704Z,48.85
2022-08-01T17:04:31.355Z,54.39
2022-08-01T17:09:33.896Z,56.25
2022-08-01T17:14:39.868Z,57.19
2022-08-01T17:19:42.473Z,56.81
2022-08-01T17:24:45.236Z,56.87
2022-08-01T17:29:47.721Z,56.64
2022-08-01T17:34:50.628Z,56.79
2022-08-01T17:39:53.139Z,57.46
2022-08-01T17:44:57.077Z,57.53
2022-08-01T17:50:02.409Z,57.82
2022-08-01T17:55:06.114Z,57.86
2022-08-01T18:00:29.405Z,57.65
2022-08-01T18:05:36.893Z,58.12
2022-08-01T18:10:40.226Z,58.18
2022-08-01T18:15:42.872Z,57.00
2022-08-01T18:20:45.684Z,58.01
2022-08-01T18:25:48.164Z,57.92
2022-08-01T18:30:50.603Z,58.64
2022-08-01T18:35:53.911Z,58.03
2022-08-01T18:40:56.943Z,57.91
2022-08-01T18:46:01.277Z,59.45
2022-08-01T18:51:03.937Z,58.74
2022-08-01T18:56:13.630Z,58.50
2022-08-01T19:01:16.227Z,58.03
2022-08-01T19:06:18.679Z,59.19
2022-08-01T19:11:21.430Z,59.08
2022-08-01T19:16:24.429Z,62.68
2022-08-01T19:21:27.310Z,62.39
2022-08-01T19:26:32.526Z,61.72
2022-08-01T19:31:39.257Z,61.32
2022-08-01T19:36:43.944Z,61.14
2022-08-01T19:41:47.891Z,60.17
2022-08-01T19:46:51.799Z,60.93
2022-08-01T19:52:01.763Z,59.78
2022-08-01T19:57:07.051Z,63.87
2022-08-01T20:02:10.158Z,67.14
2022-08-01T20:07:14.096Z,70.34
2022-08-01T20:12:20.649Z,85.47
2022-08-01T20:17:24.759Z,93.54
2022-08-01T20:22:31.116Z,98.81
2022-08-01T20:27:34.242Z,99.62
2022-08-01T20:32:40.374Z,97.28
2022-08-01T20:38:05.586Z,94.80
2022-08-01T20:43:08.924Z,82.53
2022-08-01T20:48:12.926Z,79.30
2022-08-01T20:53:15.548Z,72.86
2022-08-01T20:58:41.158Z,75.52
2022-08-01T21:03:54.989Z,83.74
2022-08-01T21:09:02.004Z,85.22
2022-08-01T21:14:06.328Z,88.30
2022-08-01T21:19:20.025Z,86.82
2022-08-01T21:24:26.820Z,89.67
2022-08-01T21:29:32.674Z,89.43
2022-08-01T21:34:38.585Z,91.06
2022-08-01T21:39:43.268Z,88.10
2022-08-01T21:44:47.328Z,83.84
2022-08-01T21:49:49.794Z,86.91
2022-08-01T21:55:04.127Z,89.55
2022-08-01T22:00:26.075Z,91.23
2022-08-01T22:05:50.898Z,92.09
2022-08-01T22:10:58.356Z,94.54
2022-08-01T22:16:03.173Z,92.83
2022-08-01T22:21:05.670Z,95.13
2022-08-01T22:26:10.057Z,96.14
2022-08-01T22:31:16.246Z,97.73
2022-08-01T22:36:19.955Z,100.00
2022-08-01T22:41:31.344Z,98.33
2022-08-01T22:47:11.943Z,100.00
2022-08-01T22:52:22.192Z,100.00
2022-08-01T22:57:30.302Z,100.00
2022-08-01T23:02:40.561Z,100.00
2022-08-01T23:08:04.022Z,100.00
2022-08-01T23:13:07.146Z,100.00
2022-08-01T23:18:09.996Z,100.00
2022-08-01T23:23:14.255Z,100.00
2022-08-01T23:28:17.186Z,98.95
2022-08-01T23:33:19.621Z,93.07
2022-08-01T23:38:22.130Z,89.10
2022-08-01T23:43:24.655Z,88.23
2022-08-01T23:48:27.609Z,87.55
2022-08-01T23:53:31.332Z,92.37
2022-08-01T23:58:33.987Z,100.00
